Time;durP1;ratioP1;P1;durP2;ratioP2;P2;SDS_P1;SDS_P2;PMS_P1;PMS_P2;Temp;Humidity;BMP_temperature;BMP_pressure;BME280_temperature;BME280_humidity;BME280_pressure;Samples;Min_cycle;Max_cycle;Signal;HPM_P1;HPM_P2
2022/10/29 00:02:19;;;;;;;30.20;20.27;;;;;;;13.58;100.00;102047.00;5052227;28;20036;-60
2022/10/29 00:04:45;;;;;;;31.25;21.60;;;;;;;13.57;100.00;102046.19;5053663;28;20074;-60
2022/10/29 00:07:10;;;;;;;31.63;21.75;;;;;;;13.57;100.00;102037.84;5052783;28;20059;-61
2022/10/29 00:09:35;;;;;;;30.75;21.50;;;;;;;13.55;100.00;102028.97;5053530;28;20492;-60
2022/10/29 00:12:01;;;;;;;32.58;21.20;;;;;;;13.53;100.00;102024.84;5053170;28;20444;-60
2022/10/29 00:14:26;;;;;;;31.45;21.45;;;;;;;13.46;100.00;102019.63;5053295;28;20354;-61
2022/10/29 00:16:51;;;;;;;32.47;21.95;;;;;;;13.39;100.00;102030.28;5053251;28;20024;-60
2022/10/29 00:19:17;;;;;;;32.75;22.33;;;;;;;13.35;100.00;102018.06;5053154;28;20362;-60
2022/10/29 00:21:42;;;;;;;29.38;20.98;;;;;;;13.30;100.00;102013.41;5053072;28;20604;-60
2022/10/29 00:24:08;;;;;;;31.05;21.08;;;;;;;13.26;100.00;102024.28;5053338;28;20029;-60
2022/10/29 00:26:34;;;;;;;31.33;20.70;;;;;;;13.23;100.00;102021.28;5047590;22;20413;-57
2022/10/29 00:28:59;;;;;;;31.27;21.45;;;;;;;13.22;100.00;102030.72;5032801;28;20030;-57
2022/10/29 00:31:24;;;;;;;30.35;20.85;;;;;;;13.19;100.00;102029.38;5032353;28;20025;-57
2022/10/29 00:33:52;;;;;;;32.80;22.52;;;;;;;13.15;100.00;102027.47;5032618;28;20450;-58
2022/10/29 00:36:21;;;;;;;31.85;22.23;;;;;;;13.11;100.00;102027.25;5032216;28;20037;-57
2022/10/29 00:38:46;;;;;;;30.73;20.65;;;;;;;13.08;100.00;102038.94;5032217;28;20037;-57
2022/10/29 00:41:15;;;;;;;34.33;21.73;;;;;;;13.00;100.00;102020.94;5032200;28;20114;-58
2022/10/29 00:43:46;;;;;;;37.05;21.80;;;;;;;13.02;100.00;102029.81;5032170;28;20050;-58
2022/10/29 00:46:20;;;;;;;30.73;21.35;;;;;;;13.06;100.00;102022.56;5032056;28;20397;-58
2022/10/29 00:48:47;;;;;;;;;;;;;;;13.12;100.00;102026.13;5032365;28;20044;-58
2022/10/29 00:51:14;;;;;;;30.20;21.13;;;;;;;13.11;100.00;102030.84;5031829;28;19967;-57
2022/10/29 00:53:47;;;;;;;29.27;22.17;;;;;;;13.05;100.00;102018.13;5030367;28;20080;-56
2022/10/29 00:56:13;;;;;;;30.85;22.40;;;;;;;13.16;100.00;102035.50;5032278;28;20033;-58
2022/10/29 00:58:39;;;;;;;30.80;21.65;;;;;;;13.18;100.00;102024.94;5032357;28;20026;-57
2022/10/29 01:01:05;;;;;;;30.25;22.08;;;;;;;13.23;100.00;102035.97;5032081;28;20040;-58
2022/10/29 01:03:30;;;;;;;32.80;23.27;;;;;;;13.27;100.00;102034.28;5031921;28;20033;-56
2022/10/29 01:05:56;;;;;;;29.50;21.63;;;;;;;13.32;100.00;102036.16;5014148;28;20119;-58
2022/10/29 01:08:22;;;;;;;33.40;22.50;;;;;;;13.37;100.00;102032.50;5031965;28;20425;-57
2022/10/29 01:10:59;;;;;;;31.58;21.65;;;;;;;13.40;100.00;102034.72;5031672;28;20029;-59
2022/10/29 01:14:09;;;;;;;32.40;22.45;;;;;;;13.45;100.00;102037.44;5030472;28;20100;-57
2022/10/29 01:16:59;;;;;;;32.83;22.35;;;;;;;13.52;100.00;102034.31;5031607;28;20060;-57
2022/10/29 01:19:53;;;;;;;30.85;22.05;;;;;;;13.55;100.00;102028.16;5031445;28;20085;-58
2022/10/29 01:22:33;;;;;;;32.28;22.10;;;;;;;13.46;100.00;101994.63;5031822;28;20430;-58
2022/10/29 01:25:30;;;;;;;33.15;22.35;;;;;;;13.51;100.00;102016.78;5035606;28;20049;-57
2022/10/29 01:28:29;;;;;;;32.90;22.80;;;;;;;13.50;100.00;102005.97;5051325;28;20040;-58
2022/10/29 01:31:12;;;;;;;33.88;21.55;;;;;;;13.47;100.00;102004.63;5043999;28;20044;-58
2022/10/29 01:33:48;;;;;;;31.15;21.58;;;;;;;13.36;100.00;102001.13;5051246;28;20041;-58
2022/10/29 01:36:26;;;;;;;30.05;21.33;;;;;;;13.39;100.00;102000.53;5033288;28;20372;-58
2022/10/29 01:39:20;;;;;;;32.55;21.27;;;;;;;13.50;100.00;102017.94;5050949;28;20029;-57
2022/10/29 01:42:10;;;;;;;30.42;20.55;;;;;;;13.52;100.00;102006.50;5051579;28;20113;-58
2022/10/29 01:44:49;;;;;;;31.77;21.80;;;;;;;13.53;100.00;101997.84;5051285;28;20025;-57
2022/10/29 01:47:18;;;;;;;30.13;20.75;;;;;;;13.53;100.00;101992.28;5051124;28;20469;-56
2022/10/29 01:49:52;;;;;;;33.75;21.77;;;;;;;13.38;100.00;101965.50;5051168;28;20107;-57
2022/10/29 01:52:19;;;;;;;;;;;;;;;13.58;100.00;101980.28;5051880;28;20109;-58
2022/10/29 01:54:46;;;;;;;32.05;20.45;;;;;;;13.51;100.00;101979.81;5051108;28;20249;-58
2022/10/29 01:57:24;;;;;;;29.13;20.20;;;;;;;13.48;100.00;101983.19;5050881;28;20025;-58
2022/10/29 01:59:50;;;;;;;28.48;20.48;;;;;;;13.43;100.00;101972.97;5050838;28;20086;-57
2022/10/29 02:02:27;;;;;;;29.40;20.77;;;;;;;13.35;100.00;101957.78;5050985;28;20432;-58
2022/10/29 02:05:01;;;;;;;31.98;21.27;;;;;;;13.30;100.00;101960.59;5050799;28;20061;-58
2022/10/29 02:07:50;;;;;;;31.92;20.52;;;;;;;13.24;100.00;101957.06;5050975;28;20036;-57
2022/10/29 02:10:35;;;;;;;31.33;21.30;;;;;;;13.17;100.00;101964.13;5050562;28;20092;-58
2022/10/29 02:13:01;;;;;;;28.85;20.35;;;;;;;13.13;100.00;101961.06;5050876;28;20029;-57
2022/10/29 02:15:34;;;;;;;30.85;21.38;;;;;;;13.07;100.00;101970.59;5051043;28;20098;-57
2022/10/29 02:18:02;;;;;;;31.42;21.58;;;;;;;12.99;100.00;101960.97;5051016;28;20215;-58
2022/10/29 02:20:27;;;;;;;29.70;21.77;;;;;;;12.96;100.00;101967.13;5050705;28;20029;-56
2022/10/29 02:22:53;;;;;;;29.83;22.45;;;;;;;12.88;100.00;101957.47;5050963;28;20043;-57
2022/10/29 02:25:18;;;;;;;29.00;21.40;;;;;;;12.86;100.00;101958.91;5032682;28;20049;-57
2022/10/29 02:27:44;;;;;;;28.73;21.13;;;;;;;12.80;100.00;101952.56;5032819;28;20124;-57
2022/10/29 02:30:09;;;;;;;31.13;22.48;;;;;;;12.77;100.00;101953.16;5053425;28;20036;-56
2022/10/29 02:32:34;;;;;;;33.08;21.02;;;;;;;12.74;100.00;101945.44;5054578;28;20095;-57
2022/10/29 02:35:00;;;;;;;31.08;22.15;;;;;;;12.70;100.00;101941.56;5036326;28;20047;-57
2022/10/29 02:37:26;;;;;;;30.77;21.85;;;;;;;12.68;100.00;101949.38;5054654;28;20028;-58
2022/10/29 02:39:51;;;;;;;30.80;22.00;;;;;;;12.62;100.00;101943.88;5054510;28;20084;-57
2022/10/29 02:42:16;;;;;;;30.10;20.40;;;;;;;12.60;100.00;101936.97;5036219;28;20037;-57
2022/10/29 02:44:41;;;;;;;34.03;22.25;;;;;;;12.59;100.00;101933.34;5054372;28;20024;-57
2022/10/29 02:47:07;;;;;;;31.08;21.17;;;;;;;12.58;100.00;101933.66;5054066;28;20338;-58
2022/10/29 02:49:32;;;;;;;30.15;20.67;;;;;;;12.53;100.00;101926.22;5035900;28;20334;-56
2022/10/29 02:51:57;;;;;;;31.48;20.42;;;;;;;12.52;100.00;101927.31;5054016;28;20473;-57
2022/10/29 02:54:23;;;;;;;31.10;21.23;;;;;;;12.53;100.00;101925.38;5035858;28;20056;-57
2022/10/29 02:56:48;;;;;;;28.25;21.65;;;;;;;12.50;100.00;101924.00;5035878;28;20082;-57
2022/10/29 02:59:13;;;;;;;28.08;20.92;;;;;;;12.46;100.00;101932.09;5053934;28;20021;-57
2022/10/29 03:01:39;;;;;;;27.98;19.70;;;;;;;12.44;100.00;101927.97;5053962;28;20039;-57
2022/10/29 03:04:04;;;;;;;28.75;19.67;;;;;;;12.41;100.00;101925.75;5053766;28;20369;-58
2022/10/29 03:06:29;;;;;;;30.80;21.05;;;;;;;12.40;100.00;101929.66;5053690;28;20036;-58
2022/10/29 03:08:54;;;;;;;30.45;20.23;;;;;;;12.38;100.00;101927.19;5054079;28;20060;-58
2022/10/29 03:11:20;;;;;;;28.23;20.70;;;;;;;12.35;100.00;101926.94;5053794;28;20360;-57
2022/10/29 03:13:45;;;;;;;30.38;20.75;;;;;;;12.35;100.00;101926.94;5053762;28;20469;-58
2022/10/29 03:16:10;;;;;;;31.23;21.10;;;;;;;12.31;100.00;101910.88;5053915;28;20103;-57
2022/10/29 03:18:36;;;;;;;30.88;21.17;;;;;;;12.31;100.00;101919.19;5053653;28;20025;-57
2022/10/29 03:21:01;;;;;;;32.15;21.98;;;;;;;12.30;100.00;101919.50;5053745;28;20127;-58
2022/10/29 03:23:27;;;;;;;31.65;21.70;;;;;;;12.29;100.00;101921.41;5053792;28;20072;-57
2022/10/29 03:25:53;;;;;;;31.75;21.73;;;;;;;12.27;100.00;101914.50;5053383;28;20045;-58
2022/10/29 03:28:20;;;;;;;32.58;22.02;;;;;;;12.25;100.00;101908.44;5053485;28;20203;-57
2022/10/29 03:30:46;;;;;;;34.28;21.60;;;;;;;12.22;100.00;101914.56;5035613;28;20025;-58
2022/10/29 03:33:11;;;;;;;30.17;21.58;;;;;;;12.20;100.00;101908.47;5035328;28;20372;-56
2022/10/29 03:35:36;;;;;;;32.85;21.10;;;;;;;12.21;100.00;101899.84;5053585;28;20044;-57
2022/10/29 03:38:02;;;;;;;30.70;21.45;;;;;;;12.21;100.00;101908.19;5053484;28;20017;-57
2022/10/29 03:40:27;;;;;;;33.22;22.40;;;;;;;12.20;100.00;101895.44;5034770;28;20477;-58
2022/10/29 03:42:52;;;;;;;29.90;21.63;;;;;;;12.21;100.00;101904.59;5053284;28;20025;-58
2022/10/29 03:45:18;;;;;;;32.92;22.15;;;;;;;12.23;100.00;101896.81;5053334;28;20118;-58
2022/10/29 03:47:43;;;;;;;31.10;21.58;;;;;;;12.25;100.00;101898.16;5053040;28;20025;-57
2022/10/29 03:50:08;;;;;;;31.20;21.65;;;;;;;12.26;100.00;101888.72;5052852;28;20464;-57
2022/10/29 03:52:34;;;;;;;31.10;21.65;;;;;;;12.30;100.00;101897.28;5052902;28;20036;-58
2022/10/29 03:54:59;;;;;;;34.70;21.55;;;;;;;12.33;100.00;101899.47;5052862;28;20021;-58
2022/10/29 03:57:24;;;;;;;32.13;22.08;;;;;;;12.29;100.00;101881.75;5052993;28;20032;-58
2022/10/29 03:59:50;;;;;;;32.38;21.58;;;;;;;12.36;100.00;101892.53;5052729;28;20021;-59
2022/10/29 04:02:15;;;;;;;32.15;21.85;;;;;;;12.39;100.00;101900.25;5052784;28;20025;-58
2022/10/29 04:04:40;;;;;;;30.88;21.67;;;;;;;12.42;100.00;101900.47;5052756;28;20033;-56
2022/10/29 04:07:06;;;;;;;32.47;22.42;;;;;;;12.41;100.00;101898.84;5052604;28;20453;-57
2022/10/29 04:09:31;;;;;;;32.47;22.50;;;;;;;12.42;100.00;101889.38;5052786;28;20031;-56
2022/10/29 04:11:56;;;;;;;30.77;22.13;;;;;;;12.44;100.00;101878.00;5052750;28;20257;-58
2022/10/29 04:14:22;;;;;;;33.53;23.30;;;;;;;12.40;100.00;101866.66;5052783;28;20059;-58
2022/10/29 04:16:47;;;;;;;31.35;22.58;;;;;;;12.43;100.00;101859.69;5052592;28;20036;-57
2022/10/29 04:19:12;;;;;;;31.88;22.73;;;;;;;12.41;100.00;101859.16;5052320;28;20025;-57
2022/10/29 04:21:38;;;;;;;32.85;22.25;;;;;;;12.36;100.00;101856.47;5052266;28;20025;-57
2022/10/29 04:24:03;;;;;;;31.10;22.25;;;;;;;12.33;100.00;101861.47;5052552;28;20029;-58
2022/10/29 04:26:29;;;;;;;32.33;22.88;;;;;;;12.31;100.00;101858.16;5034151;28;20051;-57
2022/10/29 04:28:54;;;;;;;33.50;22.85;;;;;;;12.30;100.00;101855.69;5052264;28;20024;-58
2022/10/29 04:31:19;;;;;;;32.80;22.95;;;;;;;12.29;100.00;101854.03;5052493;28;20108;-58
2022/10/29 04:33:45;;;;;;;32.92;23.15;;;;;;;12.29;100.00;101852.06;5052507;28;20032;-57
2022/10/29 04:36:11;;;;;;;31.20;23.13;;;;;;;12.29;100.00;101843.72;5052117;28;20402;-56
2022/10/29 04:38:36;;;;;;;34.67;23.70;;;;;;;12.30;100.00;101848.16;5052337;28;20361;-57
2022/10/29 04:41:02;;;;;;;32.53;23.40;;;;;;;12.31;100.00;101838.72;5052136;28;20072;-56
2022/10/29 04:43:28;;;;;;;33.58;23.08;;;;;;;12.31;100.00;101835.94;5051838;28;20032;-56
2022/10/29 04:45:55;;;;;;;32.45;24.67;;;;;;;12.32;100.00;101854.25;5051904;28;20021;-57
2022/10/29 04:48:22;;;;;;;31.67;22.63;;;;;;;12.32;100.00;101845.13;5051800;28;20021;-56
2022/10/29 04:50:48;;;;;;;34.80;23.88;;;;;;;12.29;100.00;101849.28;5051880;28;20035;-57
2022/10/29 04:53:14;;;;;;;34.65;23.58;;;;;;;12.27;100.00;101857.09;5051706;28;20025;-57
2022/10/29 04:55:40;;;;;;;33.83;23.42;;;;;;;12.25;100.00;101858.50;5033897;28;20056;-57
2022/10/29 04:58:06;;;;;;;33.58;23.85;;;;;;;12.21;100.00;101869.34;5051744;28;20498;-58
2022/10/29 05:00:32;;;;;;;34.38;24.42;;;;;;;12.20;100.00;101866.88;5051461;28;20029;-57
2022/10/29 05:02:57;;;;;;;31.30;23.42;;;;;;;12.17;100.00;101859.97;5051433;28;20187;-55
2022/10/29 05:05:23;;;;;;;32.88;23.27;;;;;;;12.13;100.00;101851.41;5051502;28;20100;-57
2022/10/29 05:07:48;;;;;;;32.38;23.23;;;;;;;12.10;100.00;101842.81;5051558;28;20461;-58
2022/10/29 05:10:14;;;;;;;30.88;21.92;;;;;;;12.08;100.00;101847.84;5051659;28;20021;-58
2022/10/29 05:12:40;;;;;;;34.65;23.42;;;;;;;12.05;100.00;101835.38;5033413;28;20079;-57
2022/10/29 05:15:06;;;;;;;33.25;24.13;;;;;;;12.04;100.00;101844.00;5033721;28;20380;-57
2022/10/29 05:17:36;;;;;;;34.60;23.05;;;;;;;11.95;100.00;101825.19;5051624;28;20120;-56
2022/10/29 05:20:02;;;;;;;34.30;23.27;;;;;;;12.02;100.00;101830.44;5051896;28;20029;-58
2022/10/29 05:22:27;;;;;;;34.83;23.00;;;;;;;12.01;100.00;101831.53;5033517;28;20025;-57
2022/10/29 05:24:52;;;;;;;38.60;23.52;;;;;;;12.02;100.00;101849.84;5051456;28;20073;-57
2022/10/29 05:27:17;;;;;;;35.00;22.83;;;;;;;11.98;100.00;101841.28;5051530;28;20058;-58
2022/10/29 05:29:43;;;;;;;34.08;23.67;;;;;;;11.99;100.00;101833.78;5051504;28;20090;-57
2022/10/29 05:32:08;;;;;;;34.03;23.98;;;;;;;11.98;100.00;101832.97;5051070;28;20041;-57
2022/10/29 05:34:33;;;;;;;37.08;24.25;;;;;;;12.00;100.00;101829.88;5051069;28;20029;-58
2022/10/29 05:36:58;;;;;;;36.10;24.13;;;;;;;12.02;100.00;101836.78;5051321;28;20036;-57
2022/10/29 05:39:24;;;;;;;35.83;24.08;;;;;;;12.04;100.00;101832.91;5051188;28;20417;-57
2022/10/29 05:41:49;;;;;;;36.78;24.75;;;;;;;12.06;100.00;101836.22;5051428;28;20048;-58
2022/10/29 05:44:14;;;;;;;34.95;24.30;;;;;;;12.07;100.00;101833.13;5051110;28;20501;-58
2022/10/29 05:46:39;;;;;;;38.60;24.55;;;;;;;12.09;100.00;101830.09;5050884;28;20037;-58
2022/10/29 05:49:05;;;;;;;36.47;23.90;;;;;;;12.11;100.00;101816.75;5051179;28;20026;-57
2022/10/29 05:51:30;;;;;;;35.55;24.15;;;;;;;12.14;100.00;101819.75;5050988;28;20032;-58
2022/10/29 05:53:56;;;;;;;34.92;23.73;;;;;;;12.17;100.00;101823.91;5051103;28;20029;-58
2022/10/29 05:56:21;;;;;;;32.67;24.17;;;;;;;12.21;100.00;101832.47;5050988;28;20059;-58
2022/10/29 05:58:49;;;;;;;38.90;24.98;;;;;;;12.22;100.00;101829.38;5050852;28;20201;-58
2022/10/29 06:01:18;;;;;;;35.50;25.00;;;;;;;12.20;100.00;101806.66;5032729;28;20058;-57
2022/10/29 06:03:44;;;;;;;37.20;24.63;;;;;;;12.26;100.00;101807.44;5051225;28;20036;-58
2022/10/29 06:06:09;;;;;;;34.55;25.35;;;;;;;12.29;100.00;101817.94;5036667;28;20037;-58
2022/10/29 06:08:34;;;;;;;37.40;25.33;;;;;;;12.27;100.00;101806.31;5054902;28;20029;-58
2022/10/29 06:11:01;;;;;;;34.20;24.58;;;;;;;12.28;100.00;101791.31;5054724;28;20025;-58
2022/10/29 06:13:27;;;;;;;36.00;25.05;;;;;;;12.29;100.00;101801.31;5054861;28;20449;-57
2022/10/29 06:15:56;;;;;;;34.80;24.73;;;;;;;12.25;100.00;101784.44;5055133;28;20139;-58
2022/10/29 06:18:21;;;;;;;38.25;25.40;;;;;;;12.35;100.00;101799.31;5055082;28;20032;-57
2022/10/29 06:20:47;;;;;;;35.33;25.05;;;;;;;12.36;100.00;101800.97;5055110;28;20029;-57
2022/10/29 06:23:12;;;;;;;34.55;24.02;;;;;;;12.37;100.00;101811.75;5054971;28;20090;-58
2022/10/29 06:25:37;;;;;;;35.10;25.33;;;;;;;12.39;100.00;101814.22;5054939;28;20045;-58
2022/10/29 06:28:05;;;;;;;35.13;25.63;;;;;;;12.33;100.00;101797.66;5054445;28;20036;-59
2022/10/29 06:30:32;;;;;;;38.75;26.02;;;;;;;12.43;100.00;101807.78;5054463;28;20056;-59
2022/10/29 06:32:58;;;;;;;36.15;25.42;;;;;;;12.44;100.00;101817.78;5054544;28;20052;-57
2022/10/29 06:35:24;;;;;;;38.30;24.63;;;;;;;12.47;100.00;101819.97;5054726;28;20075;-58
2022/10/29 06:37:49;;;;;;;34.55;24.60;;;;;;;12.50;100.00;101828.81;5054585;28;20029;-58
2022/10/29 06:40:15;;;;;;;33.63;23.40;;;;;;;12.51;100.00;101830.47;5054865;28;20047;-58
2022/10/29 06:42:40;;;;;;;40.53;25.23;;;;;;;12.54;100.00;101810.44;5054587;28;20040;-58
2022/10/29 06:45:06;;;;;;;35.30;26.75;;;;;;;12.57;100.00;101824.56;5054421;28;20025;-58
2022/10/29 06:47:40;;;;;;;36.28;25.45;;;;;;;12.58;100.00;101812.34;5054281;28;20177;-58
2022/10/29 06:50:05;;;;;;;;;;;;;;;12.64;100.00;101816.72;5054712;28;20107;-58
2022/10/29 06:52:31;;;;;;;37.17;24.17;;;;;;;12.64;100.00;101827.81;5053830;28;20440;-58
2022/10/29 06:54:56;;;;;;;37.05;24.88;;;;;;;12.67;100.00;101831.94;5053966;28;20072;-58
2022/10/29 06:57:23;;;;;;;36.95;25.77;;;;;;;12.69;100.00;101826.09;5054023;28;20502;-58
2022/10/29 06:59:49;;;;;;;36.85;25.42;;;;;;;12.70;100.00;101824.97;5053766;28;20405;-57
2022/10/29 07:02:16;;;;;;;37.03;25.17;;;;;;;12.71;100.00;101819.13;5053872;28;20025;-59
2022/10/29 07:04:43;;;;;;;38.00;24.08;;;;;;;12.74;100.00;101817.72;5053983;28;20033;-58
2022/10/29 07:07:08;;;;;;;33.03;24.10;;;;;;;12.76;100.00;101824.63;5053868;28;20060;-58
2022/10/29 07:09:33;;;;;;;34.95;23.42;;;;;;;12.81;100.00;101823.72;5054016;28;20469;-58
2022/10/29 07:11:58;;;;;;;35.63;24.17;;;;;;;12.85;100.00;101821.19;5053718;28;20032;-57
2022/10/29 07:14:24;;;;;;;35.10;24.50;;;;;;;12.90;100.00;101823.88;5053445;28;20021;-57
2022/10/29 07:16:49;;;;;;;33.00;24.13;;;;;;;12.92;100.00;101824.41;5052294;28;20033;-57
2022/10/29 07:19:14;;;;;;;35.28;23.70;;;;;;;12.93;100.00;101818.56;5053639;28;20017;-58
2022/10/29 07:21:40;;;;;;;38.80;25.13;;;;;;;12.98;100.00;101828.78;5053890;28;20028;-58
2022/10/29 07:24:05;;;;;;;35.78;23.90;;;;;;;13.01;100.00;101824.56;5053539;28;20025;-57
2022/10/29 07:26:30;;;;;;;36.40;23.55;;;;;;;13.03;100.00;101822.34;5053044;28;20041;-57
2022/10/29 07:28:56;;;;;;;35.33;23.98;;;;;;;13.05;100.00;101829.25;5053432;28;20028;-56
2022/10/29 07:31:21;;;;;;;35.67;23.77;;;;;;;13.10;100.00;101817.22;5053576;28;20047;-57
2022/10/29 07:33:47;;;;;;;35.13;24.13;;;;;;;13.15;100.00;101811.59;5019058;28;20356;-57
2022/10/29 07:36:12;;;;;;;36.13;24.05;;;;;;;13.20;100.00;101805.97;5053498;28;20342;-58
2022/10/29 07:38:37;;;;;;;36.35;23.65;;;;;;;13.23;100.00;101808.13;5053357;28;20108;-58
2022/10/29 07:41:03;;;;;;;34.65;24.55;;;;;;;13.26;100.00;101796.41;5053276;28;20028;-57
2022/10/29 07:43:28;;;;;;;43.05;28.63;;;;;;;13.31;100.00;101798.28;5053253;28;20329;-58
2022/10/29 07:45:53;;;;;;;38.72;26.13;;;;;;;13.34;100.00;101792.13;5053247;28;20033;-58
2022/10/29 07:48:19;;;;;;;37.42;25.33;;;;;;;13.38;100.00;101807.06;5053184;28;20395;-57
2022/10/29 07:50:46;;;;;;;38.20;25.33;;;;;;;13.41;100.00;101803.72;5053294;28;20079;-58
2022/10/29 07:53:11;;;;;;;37.33;25.08;;;;;;;13.43;100.00;101799.81;5034925;28;20033;-58
2022/10/29 07:55:37;;;;;;;37.53;24.27;;;;;;;13.45;100.00;101798.38;5052892;28;20047;-59
2022/10/29 07:58:05;;;;;;;33.55;23.48;;;;;;;13.39;100.00;101786.53;5053009;28;20062;-57
2022/10/29 08:00:33;;;;;;;34.13;24.83;;;;;;;13.51;100.00;101805.50;5052859;28;20036;-59
2022/10/29 08:02:58;;;;;;;34.92;23.98;;;;;;;13.58;100.00;101791.22;5052770;28;20029;-58
2022/10/29 08:05:25;;;;;;;34.15;24.25;;;;;;;13.60;100.00;101793.72;5052786;28;20036;-58
2022/10/29 08:07:54;;;;;;;37.45;24.27;;;;;;;13.60;100.00;101786.19;5053432;28;20116;-58
2022/10/29 08:10:20;;;;;;;34.13;23.40;;;;;;;13.63;100.00;101790.31;5052807;28;20100;-55
2022/10/29 08:12:52;;;;;;;36.33;24.10;;;;;;;13.72;100.00;101802.38;5052771;28;20060;-57
2022/10/29 08:15:19;;;;;;;36.60;24.10;;;;;;;13.78;100.00;101790.06;5035410;28;20032;-57
2022/10/29 08:17:44;;;;;;;38.20;24.17;;;;;;;13.82;100.00;101791.09;5053408;28;20032;-57
2022/10/29 08:20:10;;;;;;;35.60;23.90;;;;;;;13.91;100.00;101793.16;5053472;28;20476;-58
2022/10/29 08:22:35;;;;;;;35.33;24.00;;;;;;;13.95;100.00;101795.03;5053099;28;20499;-57
2022/10/29 08:25:01;;;;;;;37.25;24.35;;;;;;;14.02;100.00;101787.13;5053002;28;20120;-58
2022/10/29 08:27:26;;;;;;;35.42;23.95;;;;;;;14.11;100.00;101776.09;5052572;28;20028;-58
2022/10/29 08:29:51;;;;;;;36.50;23.77;;;;;;;14.19;100.00;101783.72;5053401;28;20033;-58
2022/10/29 08:32:17;;;;;;;37.22;24.92;;;;;;;14.31;100.00;101793.53;5053158;28;20397;-58
2022/10/29 08:34:42;;;;;;;33.97;24.67;;;;;;;14.40;100.00;101786.13;5053147;28;20029;-58
2022/10/29 08:37:07;;;;;;;35.78;24.88;;;;;;;14.47;100.00;101775.38;5052914;28;20126;-58
2022/10/29 08:39:33;;;;;;;33.67;23.48;;;;;;;14.51;100.00;101764.44;5052701;28;20029;-57
2022/10/29 08:42:13;;;;;;;34.58;25.40;;;;;;;14.54;100.00;101765.81;5052759;28;20032;-57
2022/10/29 08:44:56;;;;;;;37.15;26.50;;;;;;;14.60;100.00;101775.69;5053008;28;20025;-58
2022/10/29 08:47:22;;;;;;;34.83;24.85;;;;;;;14.64;100.00;101776.72;5034761;28;20048;-58
2022/10/29 08:50:03;;;;;;;34.60;24.55;;;;;;;14.76;100.00;101781.78;5052524;28;20028;-57
2022/10/29 08:52:35;;;;;;;38.17;25.38;;;;;;;14.89;100.00;101788.47;5052577;28;20028;-58
2022/10/29 08:55:23;;;;;;;37.60;25.42;;;;;;;15.01;100.00;101788.75;5052709;28;20040;-58
2022/10/29 08:57:56;;;;;;;32.60;24.23;;;;;;;15.09;100.00;101778.81;5052429;28;20401;-59
2022/10/29 09:00:29;;;;;;;37.13;25.50;;;;;;;15.15;100.00;101779.53;5034461;28;20490;-57
2022/10/29 09:02:57;;;;;;;34.72;24.83;;;;;;;15.21;100.00;101772.72;5052627;28;20537;-58
2022/10/29 09:05:49;;;;;;;34.15;24.77;;;;;;;15.39;100.00;101785.66;5052318;28;20032;-58
2022/10/29 09:08:30;;;;;;;33.45;24.10;;;;;;;15.47;100.00;101777.66;5052534;28;20370;-58
2022/10/29 09:11:01;;;;;;;34.70;25.45;;;;;;;15.50;100.00;101772.25;5052059;28;20480;-58
2022/10/29 09:13:47;;;;;;;33.65;25.10;;;;;;;15.54;100.00;101764.91;5051658;28;20131;-57
2022/10/29 09:16:41;;;;;;;35.92;24.90;;;;;;;15.63;100.00;101764.97;5051991;28;20070;-58
2022/10/29 09:19:25;;;;;;;;;;;;;;;15.75;100.00;101767.16;5052156;28;20017;-57
2022/10/29 09:22:28;;;;;;;34.37;25.37;;;;;;;15.88;100.00;101757.09;5051864;28;19959;-58
2022/10/29 09:25:08;;;;;;;34.55;24.33;;;;;;;16.02;100.00;101768.16;5051303;28;20045;-57
2022/10/29 09:27:39;;;;;;;36.42;25.25;;;;;;;16.11;100.00;101757.84;5051572;28;20426;-57
2022/10/29 09:30:17;;;;;;;34.53;25.45;;;;;;;16.20;100.00;101758.72;5051512;28;20067;-57
2022/10/29 09:33:00;;;;;;;32.92;24.00;;;;;;;16.25;100.00;101762.53;5051278;28;20524;-58
2022/10/29 09:35:37;;;;;;;30.88;23.80;;;;;;;16.34;100.00;101763.38;5051619;28;20051;-58
2022/10/29 09:38:12;;;;;;;32.22;24.10;;;;;;;16.37;100.00;101760.75;5033561;28;20461;-57
2022/10/29 09:40:41;;;;;;;32.10;23.25;;;;;;;16.40;100.00;101761.25;5032952;28;20025;-57
2022/10/29 09:43:44;;;;;;;32.45;24.52;;;;;;;16.43;100.00;101758.63;5051001;28;20100;-57
2022/10/29 09:46:15;;;;;;;34.00;24.20;;;;;;;16.41;100.00;101755.34;5051333;28;20444;-56
2022/10/29 09:48:46;;;;;;;34.60;25.08;;;;;;;16.43;100.00;101766.19;5051192;28;20087;-57
2022/10/29 09:51:33;;;;;;;34.40;25.77;;;;;;;16.45;100.00;101756.34;5051320;28;20045;-57
2022/10/29 09:53:59;;;;;;;33.35;24.83;;;;;;;16.48;100.00;101768.84;5051273;28;20029;-58
2022/10/29 09:56:24;;;;;;;34.85;25.00;;;;;;;16.51;100.00;101755.03;5051276;28;20021;-61
2022/10/29 09:59:00;;;;;;;32.97;25.15;;;;;;;16.58;100.00;101756.56;5051151;28;20075;-57
2022/10/29 10:01:25;;;;;;;32.95;23.90;;;;;;;16.66;100.00;101727.81;5051327;28;20036;-58
2022/10/29 10:04:03;;;;;;;32.40;24.83;;;;;;;16.67;100.00;101707.91;5051178;28;20025;-58
2022/10/29 10:06:53;;;;;;;35.35;25.23;;;;;;;16.84;100.00;101720.25;5033126;28;20187;-57
2022/10/29 10:09:19;;;;;;;34.20;23.58;;;;;;;16.96;100.00;101723.25;5050602;28;20051;-58
2022/10/29 10:11:51;;;;;;;32.67;22.95;;;;;;;17.12;100.00;101723.59;5050940;28;20037;-58
2022/10/29 10:14:21;;;;;;;32.10;22.58;;;;;;;17.27;100.00;101722.25;5051402;28;20038;-57
2022/10/29 10:16:57;;;;;;;39.13;30.75;;;;;;;17.48;100.00;101720.72;5051376;28;20100;-57
2022/10/29 10:19:24;;;;;;;30.98;22.13;;;;;;;17.71;100.00;101718.53;5051225;28;20075;-57
2022/10/29 10:22:01;;;;;;;39.13;21.92;;;;;;;17.91;100.00;101715.00;5051046;28;20052;-57
2022/10/29 10:24:35;;;;;;;32.40;20.65;;;;;;;18.14;100.00;101722.34;5051014;28;20040;-58
2022/10/29 10:27:25;;;;;;;31.85;20.02;;;;;;;18.35;100.00;101723.25;5050778;28;20037;-58
2022/10/29 10:30:02;;;;;;;43.35;21.48;;;;;;;18.48;100.00;101721.34;5050791;28;20100;-58
2022/10/29 10:32:28;;;;;;;82.95;25.80;;;;;;;18.57;98.53;101721.28;5050890;28;20052;-60
2022/10/29 10:34:53;;;;;;;30.10;16.88;;;;;;;18.64;94.84;101720.75;5050881;28;20049;-58
2022/10/29 10:37:20;;;;;;;28.60;17.52;;;;;;;18.58;95.06;101710.91;5050800;28;20041;-58
2022/10/29 10:40:05;;;;;;;27.65;17.73;;;;;;;18.69;96.43;101712.94;5050698;28;20025;-57
2022/10/29 10:42:41;;;;;;;27.40;17.65;;;;;;;18.71;94.00;101712.59;5050216;28;20041;-58
2022/10/29 10:45:38;;;;;;;29.20;16.90;;;;;;;18.82;95.71;101707.44;5033123;28;20071;-57
2022/10/29 10:48:07;;;;;;;27.35;16.45;;;;;;;18.92;91.67;101704.22;5026209;28;20048;-57
2022/10/29 10:50:34;;;;;;;26.65;17.02;;;;;;;19.00;90.59;101697.75;5051770;28;20029;-58
2022/10/29 10:53:16;;;;;;;25.67;16.02;;;;;;;19.07;92.58;101694.38;5053690;28;20166;-57
2022/10/29 10:55:59;;;;;;;25.02;15.30;;;;;;;19.13;89.09;101694.97;5054168;28;20029;-58
2022/10/29 10:58:37;;;;;;;27.02;16.20;;;;;;;19.20;90.01;101694.41;5054096;28;20086;-57
2022/10/29 11:01:15;;;;;;;29.05;15.70;;;;;;;19.27;89.33;101691.91;5054401;28;20140;-58
2022/10/29 11:03:45;;;;;;;26.80;15.57;;;;;;;19.29;87.91;101678.31;5054406;28;20029;-58
2022/10/29 11:06:24;;;;;;;24.58;15.57;;;;;;;19.30;87.65;101679.97;5054299;28;20094;-58
2022/10/29 11:08:56;;;;;;;24.88;15.98;;;;;;;19.33;87.81;101687.69;5054286;28;20473;-58
2022/10/29 11:11:29;;;;;;;28.10;16.50;;;;;;;19.35;86.96;101695.75;5054427;28;20036;-58
2022/10/29 11:14:00;;;;;;;25.75;15.43;;;;;;;19.45;86.22;101686.91;5053633;28;20114;-58
2022/10/29 11:16:32;;;;;;;27.67;15.68;;;;;;;19.44;85.78;101682.44;5053657;28;20021;-58